Time;durP1;ratioP1;P1;durP2;ratioP2;P2;SDS_P1;SDS_P2;PMS_P1;PMS_P2;Temp;Humidity;BMP_temperature;BMP_pressure;BME280_temperature;BME280_humidity;BME280_pressure;Samples;Min_cycle;Max_cycle;Signal;HPM_P1;HPM_P2
2022/01/01 00:00:51;;;;;;;;;;;;;;;;;;4954831;28;20041;-67
2022/01/01 00:03:16;;;;;;;;;;;;;;;;;;4947890;28;20008;-69
2022/01/01 00:05:42;;;;;;;;;;;;;;;;;;4964768;28;19918;-67
2022/01/01 00:08:08;;;;;;;;;;;;;;;;;;4955195;28;20013;-70
2022/01/01 00:10:33;;;;;;;;;;;;;;;;;;4949313;28;19930;-69
2022/01/01 00:12:59;;;;;;;;;;;;;;;;;;4956561;28;19953;-67
2022/01/01 00:15:24;;;;;;;;;;;;;;;;;;4962821;28;19926;-67
2022/01/01 00:17:49;;;;;;;;;;;;;;;;;;4948872;28;19918;-67
2022/01/01 00:20:14;;;;;;;;;;;;;;;;;;4955540;28;20060;-67
2022/01/01 00:22:39;;;;;;;;;;;;;;;;;;4948844;28;20025;-65
2022/01/01 00:25:05;;;;;;;;;;;;;;;;;;4955032;28;19918;-69
2022/01/01 00:27:30;;;;;;;;;;;;;;;;;;4955273;28;19919;-67
2022/01/01 00:29:55;;;;;;;;;;;;;;;;;;4948286;28;19922;-69
2022/01/01 00:32:20;;;;;;;;;;;;;;;;;;4953683;28;19923;-70
2022/01/01 00:34:46;;;;;;;;;;;;;;;;;;4947436;28;20276;-74
2022/01/01 00:37:11;;;;;;;;;;;;;;;;;;4955999;28;19988;-66
2022/01/01 00:39:36;;;;;;;;;;;;;;;;;;4949488;28;19929;-70
2022/01/01 00:42:01;;;;;;;;;;;;;;;;;;4947451;28;19970;-72
2022/01/01 00:44:30;;;;;;;;;;;;;;;;;;4956982;28;19974;-66
2022/01/01 00:46:55;;;;;;;;;;;;;;;;;;4962092;28;20041;-65
2022/01/01 00:49:20;;;;;;;;;;;;;;;;;;4952970;28;19938;-65
2022/01/01 00:51:46;;;;;;;;;;;;;;;;;;4948223;28;19969;-70
2022/01/01 00:54:11;;;;;;;;;;;;;;;;;;4946419;28;19945;-71
2022/01/01 00:56:36;;;;;;;;;;;;;;;;;;4955149;28;19926;-69
2022/01/01 00:59:01;;;;;;;;;;;;;;;;;;4950484;28;19925;-68
2022/01/01 01:01:26;;;;;;;;;;;;;;;;;;4956121;28;20367;-69
2022/01/01 01:03:52;;;;;;;;;;;;;;;;;;4946537;28;20438;-69
2022/01/01 01:06:17;;;;;;;;;;;;;;;;;;4948037;28;20311;-64
2022/01/01 01:08:42;;;;;;;;;;;;;;;;;;4953330;28;19918;-71
2022/01/01 01:11:08;;;;;;;;;;;;;;;;;;4947675;28;19955;-67
2022/01/01 01:13:33;;;;;;;;;;;;;;;;;;4953792;28;19918;-68
2022/01/01 01:15:59;;;;;;;;;;;;;;;;;;4945481;28;19918;-71
2022/01/01 01:18:24;;;;;;;;;;;;;;;;;;4949048;28;20472;-67
2022/01/01 01:20:49;;;;;;;;;;;;;;;;;;4953307;28;19941;-65
2022/01/01 01:23:14;;;;;;;;;;;;;;;;;;4950512;28;20377;-68
2022/01/01 01:25:41;;;;;;;;;;;;;;;;;;4953407;28;20382;-65
2022/01/01 01:28:07;;;;;;;;;;;;;;;;;;4949105;28;19919;-65
2022/01/01 01:30:33;;;;;;;;;;;;;;;;;;4946791;28;19933;-73
2022/01/01 01:32:58;;;;;;;;;;;;;;;;;;4956280;28;20291;-67
2022/01/01 01:35:23;;;;;;;;;;;;;;;;;;4949613;28;19922;-66
2022/01/01 01:37:48;;;;;;;;;;;;;;;;;;4957366;28;19923;-65
2022/01/01 01:40:13;;;;;;;;;;;;;;;;;;4950914;28;19930;-70
2022/01/01 01:42:39;;;;;;;;;;;;;;;;;;4949860;28;19946;-69
2022/01/01 01:45:04;;;;;;;;;;;;;;;;;;4957867;28;19918;-69
2022/01/01 01:47:32;;;;;;;;;;;;;;;;;;4954452;28;20398;-66
2022/01/01 01:49:57;;;;;;;;;;;;;;;;;;4964389;28;20751;-68
2022/01/01 01:52:23;;;;;;;;;;;;;;;;;;4952988;28;19918;-65
2022/01/01 01:54:48;;;;;;;;;;;;;;;;;;4954067;28;20645;-64
2022/01/01 01:57:14;;;;;;;;;;;;;;;;;;4959857;28;19988;-66
2022/01/01 01:59:39;;;;;;;;;;;;;;;;;;4951417;28;19918;-69
2022/01/01 02:02:04;;;;;;;;;;;;;;;;;;4955934;28;20006;-67
2022/01/01 02:04:29;;;;;;;;;;;;;;;;;;4950623;28;19922;-67
2022/01/01 02:06:54;;;;;;;;;;;;;;;;;;4952770;28;19947;-64
2022/01/01 02:09:20;;;;;;;;;;;;;;;;;;4955611;28;19926;-68
2022/01/01 02:11:46;;;;;;;;;;;;;;;;;;4950963;28;19918;-64
2022/01/01 02:19:23;;;;;;;;;;;;;;;;;;4951938;28;19926;-68
2022/01/01 02:21:48;;;;;;;;;;;;;;;;;;4957260;28;19922;-68
2022/01/01 02:24:13;;;;;;;;;;;;;;;;;;4950165;28;19926;-71
2022/01/01 02:26:39;;;;;;;;;;;;;;;;;;4953071;28;19978;-67
2022/01/01 02:29:04;;;;;;;;;;;;;;;;;;4956274;28;19969;-70
2022/01/01 02:31:29;;;;;;;;;;;;;;;;;;4950911;28;20287;-67
2022/01/01 02:33:54;;;;;;;;;;;;;;;;;;4957628;28;21226;-66
2022/01/01 02:36:19;;;;;;;;;;;;;;;;;;4953159;28;19918;-65
2022/01/01 02:38:45;;;;;;;;;;;;;;;;;;4951542;28;19918;-66
2022/01/01 02:41:10;;;;;;;;;;;;;;;;;;4959439;28;20334;-67
2022/01/01 02:43:35;;;;;;;;;;;;;;;;;;4952860;28;20352;-68
2022/01/01 02:46:00;;;;;;;;;;;;;;;;;;4954236;28;20265;-67
2022/01/01 02:48:26;;;;;;;;;;;;;;;;;;4954217;28;20018;-65
2022/01/01 02:50:51;;;;;;;;;;;;;;;;;;4948886;28;19973;-73
2022/01/01 02:53:16;;;;;;;;;;;;;;;;;;4956817;28;19919;-68
2022/01/01 02:55:42;;;;;;;;;;;;;;;;;;4949080;28;19947;-72
2022/01/01 02:58:07;;;;;;;;;;;;;;;;;;4955424;28;20130;-68
2022/01/01 03:00:32;;;;;;;;;;;;;;;;;;4950237;28;19919;-69
2022/01/01 03:02:57;;;;;;;;;;;;;;;;;;4948870;28;20380;-69
2022/01/01 03:05:23;;;;;;;;;;;;;;;;;;4954709;28;19918;-71
2022/01/01 03:07:48;;;;;;;;;;;;;;;;;;4947409;28;19918;-70
2022/01/01 03:10:13;;;;;;;;;;;;;;;;;;4953338;28;19963;-66
2022/01/01 03:12:38;;;;;;;;;;;;;;;;;;4950873;28;20020;-66
2022/01/01 03:15:03;;;;;;;;;;;;;;;;;;4949164;28;19957;-70
2022/01/01 03:17:29;;;;;;;;;;;;;;;;;;4953786;28;20485;-71
2022/01/01 03:19:54;;;;;;;;;;;;;;;;;;4961664;28;20026;-68
2022/01/01 03:22:19;;;;;;;;;;;;;;;;;;4956762;28;19918;-69
2022/01/01 03:24:44;;;;;;;;;;;;;;;;;;4947886;28;19914;-71
2022/01/01 03:27:10;;;;;;;;;;;;;;;;;;4945877;28;21473;-70
2022/01/01 03:29:35;;;;;;;;;;;;;;;;;;4956078;28;19930;-70
2022/01/01 03:32:00;;;;;;;;;;;;;;;;;;4949440;28;19933;-75
2022/01/01 03:34:25;;;;;;;;;;;;;;;;;;4952968;28;19926;-72
2022/01/01 03:36:50;;;;;;;;;;;;;;;;;;4947376;28;19922;-69
2022/01/01 03:39:16;;;;;;;;;;;;;;;;;;4954837;28;20328;-66
2022/01/01 03:41:41;;;;;;;;;;;;;;;;;;4954804;28;19918;-67
2022/01/01 03:44:06;;;;;;;;;;;;;;;;;;4945362;28;19918;-68
2022/01/01 03:46:31;;;;;;;;;;;;;;;;;;4956395;28;19922;-68
2022/01/01 03:48:56;;;;;;;;;;;;;;;;;;4948774;28;19921;-68
2022/01/01 03:51:22;;;;;;;;;;;;;;;;;;4948275;28;20016;-66
2022/01/01 03:53:47;;;;;;;;;;;;;;;;;;4966380;28;19918;-71
2022/01/01 03:56:14;;;;;;;;;;;;;;;;;;4945974;28;19929;-67
2022/01/01 03:58:39;;;;;;;;;;;;;;;;;;4958338;28;19925;-72
2022/01/01 04:01:05;;;;;;;;;;;;;;;;;;4963461;28;19918;-67
2022/01/01 04:03:30;;;;;;;;;;;;;;;;;;4958635;28;19919;-70
2022/01/01 04:05:55;;;;;;;;;;;;;;;;;;4950696;28;19956;-66
2022/01/01 04:08:20;;;;;;;;;;;;;;;;;;4949335;28;19924;-65
2022/01/01 04:10:45;;;;;;;;;;;;;;;;;;4959733;28;19934;-71
2022/01/01 04:13:11;;;;;;;;;;;;;;;;;;4948971;28;19922;-71
2022/01/01 04:15:36;;;;;;;;;;;;;;;;;;4954193;28;19918;-68
2022/01/01 04:18:05;;;;;;;;;;;;;;;;;;4948840;28;20363;-68
2022/01/01 04:20:31;;;;;;;;;;;;;;;;;;4946369;28;19926;-71
2022/01/01 04:22:56;;;;;;;;;;;;;;;;;;4953993;28;19918;-70
2022/01/01 04:25:21;;;;;;;;;;;;;;;;;;4962383;28;20419;-73
2022/01/01 04:27:46;;;;;;;;;;;;;;;;;;4949219;28;20380;-69
2022/01/01 04:30:12;;;;;;;;;;;;;;;;;;4968086;28;19940;-66
2022/01/01 04:32:37;;;;;;;;;;;;;;;;;;4947316;28;20028;-68
2022/01/01 04:35:02;;;;;;;;;;;;;;;;;;4953624;28;20401;-70
2022/01/01 04:37:27;;;;;;;;;;;;;;;;;;4946968;28;19925;-67
2022/01/01 04:39:59;;;;;;;;;;;;;;;;;;4945527;28;20360;-68
2022/01/01 04:42:24;;;;;;;;;;;;;;;;;;4951940;28;19993;-65
2022/01/01 04:44:49;;;;;;;;;;;;;;;;;;4944862;28;19915;-72
2022/01/01 04:47:14;;;;;;;;;;;;;;;;;;4952970;28;20009;-70
2022/01/01 04:49:40;;;;;;;;;;;;;;;;;;4949429;28;19927;-68
2022/01/01 04:52:05;;;;;;;;;;;;;;;;;;4949439;28;20335;-69
2022/01/01 04:54:30;;;;;;;;;;;;;;;;;;4952328;28;20013;-67
2022/01/01 04:56:55;;;;;;;;;;;;;;;;;;4947397;28;19918;-69
2022/01/01 04:59:20;;;;;;;;;;;;;;;;;;4935537;28;19918;-67
2022/01/01 05:01:46;;;;;;;;;;;;;;;;;;4947308;28;19918;-68
2022/01/01 05:04:11;;;;;;;;;;;;;;;;;;4946729;28;19942;-69
2022/01/01 05:06:36;;;;;;;;;;;;;;;;;;4954766;28;19918;-66
2022/01/01 05:09:01;;;;;;;;;;;;;;;;;;4964251;28;19976;-68
2022/01/01 05:11:26;;;;;;;;;;;;;;;;;;4954627;28;20342;-68
2022/01/01 05:13:52;;;;;;;;;;;;;;;;;;4962907;28;19915;-69
2022/01/01 05:16:18;;;;;;;;;;;;;;;;;;4961450;28;19918;-70
2022/01/01 05:18:44;;;;;;;;;;;;;;;;;;4951296;28;19918;-69
2022/01/01 05:21:09;;;;;;;;;;;;;;;;;;4946604;28;19924;-68
2022/01/01 05:23:34;;;;;;;;;;;;;;;;;;4954150;28;19922;-66
2022/01/01 05:25:59;;;;;;;;;;;;;;;;;;4945029;28;19985;-73
2022/01/01 05:28:24;;;;;;;;;;;;;;;;;;4942963;28;19922;-72
2022/01/01 05:30:50;;;;;;;;;;;;;;;;;;4952436;28;19926;-67
2022/01/01 05:33:15;;;;;;;;;;;;;;;;;;4948057;28;19926;-66
2022/01/01 05:35:40;;;;;;;;;;;;;;;;;;4952537;28;19918;-71
2022/01/01 05:38:05;;;;;;;;;;;;;;;;;;4947150;28;20531;-68
2022/01/01 05:40:31;;;;;;;;;;;;;;;;;;4945952;28;20340;-70
2022/01/01 05:42:56;;;;;;;;;;;;;;;;;;4951768;28;20476;-68
2022/01/01 05:45:21;;;;;;;;;;;;;;;;;;4949108;28;19922;-66
2022/01/01 05:47:46;;;;;;;;;;;;;;;;;;4953818;28;19918;-69
2022/01/01 05:50:12;;;;;;;;;;;;;;;;;;4945819;28;19927;-70
2022/01/01 05:52:37;;;;;;;;;;;;;;;;;;4945079;28;19962;-70
2022/01/01 05:55:02;;;;;;;;;;;;;;;;;;4951509;28;19958;-71
2022/01/01 05:57:27;;;;;;;;;;;;;;;;;;4946677;28;19918;-70
2022/01/01 05:59:53;;;;;;;;;;;;;;;;;;4955628;28;19922;-68
2022/01/01 06:02:18;;;;;;;;;;;;;;;;;;4946282;28;20297;-67
2022/01/01 06:04:43;;;;;;;;;;;;;;;;;;4943622;28;20273;-70
2022/01/01 06:07:10;;;;;;;;;;;;;;;;;;4952902;28;19918;-70
2022/01/01 06:09:35;;;;;;;;;;;;;;;;;;4946164;28;19930;-72
2022/01/01 06:12:00;;;;;;;;;;;;;;;;;;4948337;28;19918;-68
2022/01/01 06:14:26;;;;;;;;;;;;;;;;;;4946186;28;20008;-70
2022/01/01 06:16:51;;;;;;;;;;;;;;;;;;4947977;28;19965;-69
2022/01/01 06:19:16;;;;;;;;;;;;;;;;;;4970767;28;19981;-68
2022/01/01 06:21:41;;;;;;;;;;;;;;;;;;4950517;28;19961;-69
2022/01/01 06:24:07;;;;;;;;;;;;;;;;;;4974312;28;19922;-70
2022/01/01 06:26:32;;;;;;;;;;;;;;;;;;4964730;28;19930;-66
2022/01/01 06:28:57;;;;;;;;;;;;;;;;;;4951455;28;19918;-67
2022/01/01 06:31:22;;;;;;;;;;;;;;;;;;4956164;28;19926;-69
2022/01/01 06:33:47;;;;;;;;;;;;;;;;;;4951468;28;19918;-73
2022/01/01 06:36:13;;;;;;;;;;;;;;;;;;4957353;28;20135;-69
2022/01/01 06:38:38;;;;;;;;;;;;;;;;;;4952114;28;19918;-67
2022/01/01 06:41:03;;;;;;;;;;;;;;;;;;4949632;28;19922;-70
2022/01/01 06:43:28;;;;;;;;;;;;;;;;;;4954752;28;20137;-68
2022/01/01 06:45:53;;;;;;;;;;;;;;;;;;4952645;28;20402;-72
2022/01/01 06:48:19;;;;;;;;;;;;;;;;;;4955406;28;19981;-68
2022/01/01 06:50:44;;;;;;;;;;;;;;;;;;4948787;28;19930;-70
2022/01/01 06:53:09;;;;;;;;;;;;;;;;;;4956307;28;20041;-68
2022/01/01 06:55:34;;;;;;;;;;;;;;;;;;4970046;28;19923;-69
2022/01/01 06:58:00;;;;;;;;;;;;;;;;;;4949801;28;19924;-70
2022/01/01 07:00:25;;;;;;;;;;;;;;;;;;4956445;28;20466;-66
2022/01/01 07:02:50;;;;;;;;;;;;;;;;;;4964312;28;20123;-70
2022/01/01 07:05:15;;;;;;;;;;;;;;;;;;4949710;28;19918;-73
2022/01/01 07:07:41;;;;;;;;;;;;;;;;;;4956495;28;19923;-69
2022/01/01 07:10:06;;;;;;;;;;;;;;;;;;4951243;28;19933;-71
2022/01/01 07:12:31;;;;;;;;;;;;;;;;;;4956699;28;20012;-66
2022/01/01 07:14:56;;;;;;;;;;;;;;;;;;4963905;28;19929;-67
2022/01/01 07:17:22;;;;;;;;;;;;;;;;;;4949833;28;20438;-69
2022/01/01 07:19:47;;;;;;;;;;;;;;;;;;4970163;28;19918;-65
2022/01/01 07:22:12;;;;;;;;;;;;;;;;;;4951514;28;19933;-67
2022/01/01 07:24:37;;;;;;;;;;;;;;;;;;4956142;28;19998;-69
2022/01/01 07:27:02;;;;;;;;;;;;;;;;;;4948091;28;19918;-68
2022/01/01 07:29:28;;;;;;;;;;;;;;;;;;4948848;28;19925;-67
2022/01/01 07:31:53;;;;;;;;;;;;;;;;;;4956550;28;19925;-65
2022/01/01 07:34:18;;;;;;;;;;;;;;;;;;4956857;28;19925;-66
2022/01/01 07:36:43;;;;;;;;;;;;;;;;;;4954119;28;19918;-65
2022/01/01 07:39:10;;;;;;;;;;;;;;;;;;4950613;28;19917;-64
2022/01/01 07:41:36;;;;;;;;;;;;;;;;;;4950101;28;19922;-66
2022/01/01 07:44:02;;;;;;;;;;;;;;;;;;4955148;28;19918;-67
2022/01/01 07:46:27;;;;;;;;;;;;;;;;;;4950156;28;20469;-67
2022/01/01 07:48:52;;;;;;;;;;;;;;;;;;4953242;28;19918;-64
2022/01/01 07:51:17;;;;;;;;;;;;;;;;;;4964931;28;20054;-67
2022/01/01 07:53:42;;;;;;;;;;;;;;;;;;4951474;28;19918;-68
2022/01/01 07:56:08;;;;;;;;;;;;;;;;;;4957323;28;19957;-69
2022/01/01 07:58:33;;;;;;;;;;;;;;;;;;4950213;28;20016;-70
2022/01/01 08:00:58;;;;;;;;;;;;;;;;;;4957708;28;20415;-64
2022/01/01 08:03:24;;;;;;;;;;;;;;;;;;4949112;28;20378;-69
2022/01/01 08:05:49;;;;;;;;;;;;;;;;;;4950001;28;19945;-65
2022/01/01 08:08:14;;;;;;;;;;;;;;;;;;4954620;28;19922;-65
2022/01/01 08:10:39;;;;;;;;;;;;;;;;;;4949444;28;20327;-69
2022/01/01 08:13:06;;;;;;;;;;;;;;;;;;4956354;28;20372;-67
2022/01/01 08:15:31;;;;;;;;;;;;;;;;;;4947063;28;19969;-69
2022/01/01 08:17:56;;;;;;;;;;;;;;;;;;4948768;28;20340;-70
2022/01/01 08:20:22;;;;;;;;;;;;;;;;;;4954369;28;19925;-71
2022/01/01 08:22:47;;;;;;;;;;;;;;;;;;4952270;28;20006;-63
2022/01/01 08:25:12;;;;;;;;;;;;;;;;;;4969725;28;20330;-63
2022/01/01 08:27:37;;;;;;;;;;;;;;;;;;4946600;28;20408;-65
2022/01/01 08:30:03;;;;;;;;;;;;;;;;;;4962595;28;20407;-69
2022/01/01 08:32:28;;;;;;;;;;;;;;;;;;4955713;28;19918;-65
2022/01/01 08:34:53;;;;;;;;;;;;;;;;;;4944009;28;19925;-71
2022/01/01 08:37:19;;;;;;;;;;;;;;;;;;4955290;28;20423;-64
2022/01/01 08:39:44;;;;;;;;;;;;;;;;;;4947841;28;20423;-67
2022/01/01 08:42:12;;;;;;;;;;;;;;;;;;4947733;28;19925;-68
2022/01/01 08:44:37;;;;;;;;;;;;;;;;;;4955590;28;19990;-66
2022/01/01 08:47:02;;;;;;;;;;;;;;;;;;4949717;28;20505;-67
2022/01/01 08:49:28;;;;;;;;;;;;;;;;;;4956587;28;20300;-71
2022/01/01 08:51:55;;;;;;;;;;;;;;;;;;4964038;28;19950;-69
2022/01/01 08:54:20;;;;;;;;;;;;;;;;;;4949352;28;19918;-66
2022/01/01 08:56:45;;;;;;;;;;;;;;;;;;4955822;28;20382;-64
2022/01/01 08:59:11;;;;;;;;;;;;;;;;;;4948206;28;19915;-67
2022/01/01 09:01:36;;;;;;;;;;;;;;;;;;4953198;28;19946;-68
2022/01/01 09:04:01;;;;;;;;;;;;;;;;;;4948048;28;19922;-65
2022/01/01 09:06:26;;;;;;;;;;;;;;;;;;4949169;28;19919;-68
2022/01/01 09:08:52;;;;;;;;;;;;;;;;;;4951541;28;20304;-65
2022/01/01 09:11:17;;;;;;;;;;;;;;;;;;4947688;28;19926;-66
2022/01/01 09:13:43;;;;;;;;;;;;;;;;;;4951991;28;20004;-72
2022/01/01 09:16:10;;;;;;;;;;;;;;;;;;4962687;28;20347;-71
2022/01/01 09:18:35;;;;;;;;;;;;;;;;;;4947234;28;19918;-63
2022/01/01 09:21:01;;;;;;;;;;;;;;;;;;4961157;28;20313;-69
2022/01/01 09:23:26;;;;;;;;;;;;;;;;;;4952140;28;19920;-63
2022/01/01 09:25:51;;;;;;;;;;;;;;;;;;4955843;28;19985;-68
2022/01/01 09:28:16;;;;;;;;;;;;;;;;;;4952979;28;19926;-68
2022/01/01 09:30:42;;;;;;;;;;;;;;;;;;4950251;28;19985;-66
2022/01/01 09:33:07;;;;;;;;;;;;;;;;;;4956623;28;19918;-66
2022/01/01 09:35:32;;;;;;;;;;;;;;;;;;4964004;28;20559;-68
2022/01/01 09:37:58;;;;;;;;;;;;;;;;;;4968106;28;20419;-69
2022/01/01 09:40:24;;;;;;;;;;;;;;;;;;4945419;28;20319;-67
2022/01/01 09:42:49;;;;;;;;;;;;;;;;;;4950237;28;20265;-68
2022/01/01 09:45:14;;;;;;;;;;;;;;;;;;4966646;28;20013;-66
2022/01/01 09:47:39;;;;;;;;;;;;;;;;;;4945109;28;19914;-67
2022/01/01 09:50:04;;;;;;;;;;;;;;;;;;4951948;28;19930;-67
2022/01/01 09:52:30;;;;;;;;;;;;;;;;;;4948277;28;19926;-68
2022/01/01 09:54:55;;;;;;;;;;;;;;;;;;4964764;28;19918;-71
2022/01/01 09:57:20;;;;;;;;;;;;;;;;;;4958053;28;19918;-67
2022/01/01 09:59:46;;;;;;;;;;;;;;;;;;4955742;28;19968;-67
2022/01/01 10:02:12;;;;;;;;;;;;;;;;;;4973101;28;19918;-68
2022/01/01 10:04:38;;;;;;;;;;;;;;;;;;4954595;28;20009;-70
2022/01/01 10:07:03;;;;;;;;;;;;;;;;;;4953006;28;20009;-71
2022/01/01 10:09:28;;;;;;;;;;;;;;;;;;4958155;28;19944;-70
2022/01/01 10:11:53;;;;;;;;;;;;;;;;;;4952756;28;20009;-70
2022/01/01 10:14:19;;;;;;;;;;;;;;;;;;4955778;28;19926;-67
2022/01/01 10:16:47;;;;;;;;;;;;;;;;;;4950942;28;19979;-73
2022/01/01 10:19:12;;;;;;;;;;;;;;;;;;4952193;28;20422;-70
2022/01/01 10:21:41;;;;;;;;;;;;;;;;;;4957380;28;19918;-70
2022/01/01 10:24:12;;;;;;;;;;;;;;;;;;4950071;28;20008;-68
2022/01/01 10:29:23;;;;;;;;;;;;;;;;;;4956222;28;19922;-72
2022/01/01 10:31:48;;;;;;;;;;;;;;;;;;4953255;28;19922;-67
2022/01/01 10:34:13;;;;;;;;;;;;;;;;;;4957197;28;19929;-65
2022/01/01 10:36:38;;;;;;;;;;;;;;;;;;4950775;28;19976;-66
2022/01/01 10:39:04;;;;;;;;;;;;;;;;;;4948723;28;20149;-70
2022/01/01 10:41:29;;;;;;;;;;;;;;;;;;4957595;28;20300;-64
2022/01/01 10:43:54;;;;;;;;;;;;;;;;;;4948285;28;19925;-69
2022/01/01 10:46:20;;;;;;;;;;;;;;;;;;4956046;28;20347;-64
2022/01/01 10:51:13;;;;;;;;;;;;;;;;;;4949140;28;20558;-68
2022/01/01 10:53:39;;;;;;;;;;;;;;;;;;4954645;28;19918;-74
2022/01/01 10:56:05;;;;;;;;;;;;;;;;;;4947356;28;19922;-74
2022/01/01 10:58:31;;;;;;;;;;;;;;;;;;4954345;28;19918;-68
2022/01/01 11:00:57;;;;;;;;;;;;;;;;;;4948369;28;19919;-69
2022/01/01 11:03:22;;;;;;;;;;;;;;;;;;4944933;28;19965;-75
2022/01/01 11:05:48;;;;;;;;;;;;;;;;;;4967692;28;20455;-67
2022/01/01 11:08:13;;;;;;;;;;;;;;;;;;4949393;28;19918;-69
2022/01/01 11:10:38;;;;;;;;;;;;;;;;;;4954307;28;20324;-71
2022/01/01 11:13:03;;;;;;;;;;;;;;;;;;4946541;28;19914;-70
2022/01/01 11:15:29;;;;;;;;;;;;;;;;;;4950683;28;20283;-73
2022/01/01 11:17:54;;;;;;;;;;;;;;;;;;4955075;28;19926;-71
2022/01/01 11:20:19;;;;;;;;;;;;;;;;;;4981446;28;19925;-73
2022/01/01 11:22:44;;;;;;;;;;;;;;;;;;4994700;28;19924;-65
2022/01/01 11:25:09;;;;;;;;;;;;;;;;;;4988343;28;20175;-66
2022/01/01 11:27:36;;;;;;;;;;;;;;;;;;4987618;28;19924;-66
2022/01/01 11:30:01;;;;;;;;;;;;;;;;;;4991583;28;20172;-68
2022/01/01 11:32:26;;;;;;;;;;;;;;;;;;4999550;28;20370;-67
2022/01/01 11:34:52;;;;;;;;;;;;;;;;;;4992694;28;19922;-67
2022/01/01 11:37:17;;;;;;;;;;;;;;;;;;4984538;28;19968;-66
2022/01/01 11:39:42;;;;;;;;;;;;;;;;;;5003638;28;19922;-68
2022/01/01 11:42:07;;;;;;;;;;;;;;;;;;4994242;28;20443;-71
2022/01/01 11:44:34;;;;;;;;;;;;;;;;;;4986707;28;19924;-65
2022/01/01 11:47:00;;;;;;;;;;;;;;;;;;5008425;28;20339;-70
2022/01/01 11:49:25;;;;;;;;;;;;;;;;;;4988318;28;20105;-69
2022/01/01 11:51:52;;;;;;;;;;;;;;;;;;5002152;28;19974;-67
2022/01/01 11:54:17;;;;;;;;;;;;;;;;;;5009892;28;19914;-75
2022/01/01 11:56:42;;;;;;;;;;;;;;;;;;4986770;28;20275;-68
2022/01/01 11:59:08;;;;;;;;;;;;;;;;;;4993749;28;19925;-70
2022/01/01 12:01:33;;;;;;;;;;;;;;;;;;4984059;28;19917;-67
2022/01/01 12:03:58;;;;;;;;;;;;;;;;;;4987546;28;19920;-69
2022/01/01 12:06:23;;;;;;;;;;;;;;;;;;5009807;28;19918;-69
2022/01/01 12:08:50;;;;;;;;;;;;;;;;;;4988230;28;19918;-69
2022/01/01 12:11:15;;;;;;;;;;;;;;;;;;4994631;28;19921;-67
2022/01/01 12:13:40;;;;;;;;;;;;;;;;;;5003003;28;19971;-70
2022/01/01 12:16:06;;;;;;;;;;;;;;;;;;4985186;28;19940;-69
2022/01/01 12:18:31;;;;;;;;;;;;;;;;;;4993473;28;19928;-69
2022/01/01 12:21:03;;;;;;;;;;;;;;;;;;4986919;28;19971;-72
2022/01/01 12:23:29;;;;;;;;;;;;;;;;;;4993525;28;19925;-69
2022/01/01 12:25:54;;;;;;;;;;;;;;;;;;4987411;28;19965;-65
2022/01/01 12:28:19;;;;;;;;;;;;;;;;;;4986152;28;20021;-69
2022/01/01 12:30:45;;;;;;;;;;;;;;;;;;5007638;28;20442;-71
2022/01/01 12:33:10;;;;;;;;;;;;;;;;;;4987025;28;20005;-71
2022/01/01 12:35:36;;;;;;;;;;;;;;;;;;4993505;28;19921;-67
2022/01/01 12:38:01;;;;;;;;;;;;;;;;;;4987022;28;19924;-68
2022/01/01 12:40:26;;;;;;;;;;;;;;;;;;4987254;28;19917;-72
2022/01/01 12:42:51;;;;;;;;;;;;;;;;;;5021954;28;19925;-69
2022/01/01 12:45:16;;;;;;;;;;;;;;;;;;4986300;28;19922;-71
2022/01/01 12:47:42;;;;;;;;;;;;;;;;;;5007249;28;20195;-67
2022/01/01 12:50:07;;;;;;;;;;;;;;;;;;4986466;28;19925;-68
2022/01/01 12:52:32;;;;;;;;;;;;;;;;;;5000623;28;19924;-65
2022/01/01 12:54:58;;;;;;;;;;;;;;;;;;5008321;28;19921;-69
2022/01/01 12:57:23;;;;;;;;;;;;;;;;;;4988029;28;19967;-71
2022/01/01 12:59:48;;;;;;;;;;;;;;;;;;4993355;28;19930;-70
2022/01/01 13:02:14;;;;;;;;;;;;;;;;;;4988046;28;19924;-67
2022/01/01 13:04:39;;;;;;;;;;;;;;;;;;4987868;28;19917;-66
2022/01/01 13:07:05;;;;;;;;;;;;;;;;;;4991621;28;19917;-67
2022/01/01 13:09:30;;;;;;;;;;;;;;;;;;4985819;28;19982;-72
2022/01/01 13:11:59;;;;;;;;;;;;;;;;;;5005918;28;19917;-71
2022/01/01 13:14:24;;;;;;;;;;;;;;;;;;4986952;28;19929;-69
2022/01/01 13:16:50;;;;;;;;;;;;;;;;;;4988943;28;19918;-68
2022/01/01 13:19:15;;;;;;;;;;;;;;;;;;4993211;28;19917;-70
2022/01/01 13:21:41;;;;;;;;;;;;;;;;;;4985759;28;20272;-67
2022/01/01 13:24:07;;;;;;;;;;;;;;;;;;4991013;28;19929;-70
2022/01/01 13:26:32;;;;;;;;;;;;;;;;;;5002967;28;19917;-69
2022/01/01 13:28:58;;;;;;;;;;;;;;;;;;4989155;28;20229;-69
2022/01/01 13:31:24;;;;;;;;;;;;;;;;;;5012889;28;19981;-70
2022/01/01 13:33:49;;;;;;;;;;;;;;;;;;4991496;28;19921;-68
2022/01/01 13:36:14;;;;;;;;;;;;;;;;;;4991812;28;19917;-70
2022/01/01 13:38:39;;;;;;;;;;;;;;;;;;4991169;28;19917;-69
2022/01/01 13:41:05;;;;;;;;;;;;;;;;;;4991763;28;19976;-66
2022/01/01 13:43:30;;;;;;;;;;;;;;;;;;4993066;28;20394;-71
2022/01/01 13:45:56;;;;;;;;;;;;;;;;;;4989912;28;19992;-65
2022/01/01 13:48:21;;;;;;;;;;;;;;;;;;4996563;28;19925;-68
2022/01/01 13:50:47;;;;;;;;;;;;;;;;;;4995708;28;19929;-68
2022/01/01 13:53:13;;;;;;;;;;;;;;;;;;4991298;28;20402;-69
2022/01/01 13:55:38;;;;;;;;;;;;;;;;;;4993892;28;19941;-68
2022/01/01 13:58:03;;;;;;;;;;;;;;;;;;5004362;28;20229;-66
2022/01/01 14:00:28;;;;;;;;;;;;;;;;;;4991572;28;19925;-76
2022/01/01 14:02:56;;;;;;;;;;;;;;;;;;4994927;28;20396;-66
2022/01/01 14:05:23;;;;;;;;;;;;;;;;;;4987901;28;20386;-65
2022/01/01 14:07:48;;;;;;;;;;;;;;;;;;5027226;28;20008;-70
2022/01/01 14:10:16;;;;;;;;;;;;;;;;;;4989371;28;19922;-69
2022/01/01 14:12:42;;;;;;;;;;;;;;;;;;4993460;28;19983;-66
2022/01/01 14:15:07;;;;;;;;;;;;;;;;;;4997603;28;20442;-68
2022/01/01 14:17:32;;;;;;;;;;;;;;;;;;4989392;28;19918;-66
2022/01/01 14:19:57;;;;;;;;;;;;;;;;;;4997195;28;19936;-68
2022/01/01 14:22:23;;;;;;;;;;;;;;;;;;4991115;28;19944;-69
2022/01/01 14:24:48;;;;;;;;;;;;;;;;;;5004374;28;19917;-71
2022/01/01 14:27:13;;;;;;;;;;;;;;;;;;4996009;28;19984;-70
2022/01/01 14:29:38;;;;;;;;;;;;;;;;;;4991277;28;19948;-65
2022/01/01 14:32:04;;;;;;;;;;;;;;;;;;4995492;28;20327;-67
2022/01/01 14:34:29;;;;;;;;;;;;;;;;;;4989703;28;19917;-71
2022/01/01 14:36:54;;;;;;;;;;;;;;;;;;4987230;28;20294;-66
2022/01/01 14:39:19;;;;;;;;;;;;;;;;;;4995257;28;20286;-70
2022/01/01 14:41:45;;;;;;;;;;;;;;;;;;4988703;28;19918;-66
2022/01/01 14:44:10;;;;;;;;;;;;;;;;;;4993329;28;20268;-65
2022/01/01 14:46:35;;;;;;;;;;;;;;;;;;4990265;28;20279;-65
2022/01/01 14:49:00;;;;;;;;;;;;;;;;;;5000583;28;20413;-68
2022/01/01 14:51:26;;;;;;;;;;;;;;;;;;5007076;28;19930;-72
2022/01/01 14:53:51;;;;;;;;;;;;;;;;;;4989180;28;20048;-68
2022/01/01 14:56:16;;;;;;;;;;;;;;;;;;4997720;28;19921;-67
2022/01/01 14:58:42;;;;;;;;;;;;;;;;;;5006521;28;20009;-68
2022/01/01 15:01:07;;;;;;;;;;;;;;;;;;4988425;28;19917;-66
2022/01/01 15:03:33;;;;;;;;;;;;;;;;;;4994457;28;19918;-71
2022/01/01 15:05:58;;;;;;;;;;;;;;;;;;4985782;28;19917;-68
2022/01/01 15:08:23;;;;;;;;;;;;;;;;;;4997561;28;19917;-66
2022/01/01 15:10:48;;;;;;;;;;;;;;;;;;4987836;28;19980;-66
2022/01/01 15:13:13;;;;;;;;;;;;;;;;;;4988131;28;20264;-68
2022/01/01 15:15:39;;;;;;;;;;;;;;;;;;4995376;28;19928;-69
2022/01/01 15:18:04;;;;;;;;;;;;;;;;;;4988189;28;20326;-71
2022/01/01 15:20:29;;;;;;;;;;;;;;;;;;5008043;28;19929;-68
2022/01/01 15:22:54;;;;;;;;;;;;;;;;;;4989172;28;19918;-67
2022/01/01 15:25:20;;;;;;;;;;;;;;;;;;4986270;28;20330;-68
2022/01/01 15:27:45;;;;;;;;;;;;;;;;;;4992470;28;21002;-65
2022/01/01 15:35:51;;;;;;;;;;;;;;;;;;4970909;28;19936;-67
2022/01/01 15:38:29;;;;;;;;;;;;;;;;;;4974746;28;19969;-66
2022/01/01 15:41:04;;;;;;;;;;;;;;;;;;4981072;28;19987;-69
2022/01/01 15:43:30;;;;;;;;;;;;;;;;;;4984844;28;20252;-70
2022/01/01 15:45:55;;;;;;;;;;;;;;;;;;4985530;28;20308;-69
2022/01/01 15:48:20;;;;;;;;;;;;;;;;;;4991484;28;19945;-66
2022/01/01 15:50:45;;;;;;;;;;;;;;;;;;4987891;28;20012;-69
2022/01/01 15:53:10;;;;;;;;;;;;;;;;;;4992198;28;20260;-70
2022/01/01 15:55:36;;;;;;;;;;;;;;;;;;4986798;28;20206;-69
2022/01/01 15:58:01;;;;;;;;;;;;;;;;;;4984893;28;20005;-70
2022/01/01 16:00:26;;;;;;;;;;;;;;;;;;4991907;28;19921;-68
2022/01/01 16:02:52;;;;;;;;;;;;;;;;;;4986313;28;19922;-68
2022/01/01 16:05:17;;;;;;;;;;;;;;;;;;5004239;28;20316;-71
2022/01/01 16:07:42;;;;;;;;;;;;;;;;;;4984182;28;20495;-71
2022/01/01 16:10:08;;;;;;;;;;;;;;;;;;4986793;28;20325;-68
2022/01/01 16:12:33;;;;;;;;;;;;;;;;;;4993379;28;20333;-68
2022/01/01 16:14:58;;;;;;;;;;;;;;;;;;4985515;28;19940;-67
2022/01/01 16:17:23;;;;;;;;;;;;;;;;;;5007768;28;19967;-67
2022/01/01 16:19:49;;;;;;;;;;;;;;;;;;4984798;28;20064;-70
2022/01/01 16:22:14;;;;;;;;;;;;;;;;;;4999371;28;19921;-67
2022/01/01 16:24:39;;;;;;;;;;;;;;;;;;4994374;28;20026;-70
2022/01/01 16:27:04;;;;;;;;;;;;;;;;;;4999520;28;19963;-68
2022/01/01 16:29:30;;;;;;;;;;;;;;;;;;4993856;28;20279;-69
2022/01/01 16:31:55;;;;;;;;;;;;;;;;;;4984122;28;20437;-69
2022/01/01 16:34:20;;;;;;;;;;;;;;;;;;4983857;28;19949;-67
2022/01/01 16:36:45;;;;;;;;;;;;;;;;;;4991919;28;19997;-68
2022/01/01 16:39:10;;;;;;;;;;;;;;;;;;4985879;28;19932;-66
2022/01/01 16:41:36;;;;;;;;;;;;;;;;;;4990639;28;19918;-69
2022/01/01 16:44:01;;;;;;;;;;;;;;;;;;4999571;28;19917;-66
2022/01/01 16:46:26;;;;;;;;;;;;;;;;;;4999314;28;19924;-70
2022/01/01 16:48:51;;;;;;;;;;;;;;;;;;4990824;28;19917;-68